Time;durP1;ratioP1;P1;durP2;ratioP2;P2;SDS_P1;SDS_P2;PMS_P1;PMS_P2;Temp;Humidity;BMP_temperature;BMP_pressure;BME280_temperature;BME280_humidity;BME280_pressure;Samples;Min_cycle;Max_cycle;Signal;HPM_P1;HPM_P2
2022/02/22 00:00:38;;;;;;;6.37;2.50;;;5.40;99.90;;;;;;4998940;28;20698;-74
2022/02/22 00:03:05;;;;;;;5.90;2.83;;;5.50;99.90;;;;;;4998103;28;20727;-74
2022/02/22 00:05:32;;;;;;;7.20;5.47;;;5.40;99.90;;;;;;4967144;28;20209;-74
2022/02/22 00:07:59;;;;;;;8.77;7.97;;;5.50;99.90;;;;;;4989744;28;20201;-74
2022/02/22 00:10:25;;;;;;;8.33;7.63;;;5.50;99.90;;;;;;4986801;28;20225;-74
2022/02/22 00:12:53;;;;;;;8.07;7.27;;;5.50;99.90;;;;;;4992144;28;20202;-74
2022/02/22 00:15:22;;;;;;;12.70;7.10;;;5.50;99.90;;;;;;4991841;28;20205;-74
2022/02/22 00:17:48;;;;;;;5.33;4.00;;;5.50;99.90;;;;;;4988074;28;20812;-74
2022/02/22 00:20:17;;;;;;;7.93;3.23;;;5.50;99.90;;;;;;4990800;28;20217;-74
2022/02/22 00:22:44;;;;;;;7.50;6.50;;;5.50;99.90;;;;;;4998567;28;20308;-74
2022/02/22 00:25:12;;;;;;;7.17;6.57;;;5.50;99.90;;;;;;4990223;28;20276;-75
2022/02/22 00:27:40;;;;;;;9.50;4.30;;;5.40;99.90;;;;;;4986123;28;20201;-74
2022/02/22 00:30:08;;;;;;;7.30;3.63;;;5.40;99.90;;;;;;4998456;28;20268;-75
2022/02/22 00:32:39;;;;;;;8.03;5.50;;;5.40;99.90;;;;;;4991805;28;20251;-74
2022/02/22 00:35:07;;;;;;;9.57;8.27;;;5.40;99.90;;;;;;4987879;28;20584;-75
2022/02/22 00:37:34;;;;;;;7.77;7.27;;;5.40;99.90;;;;;;4963948;28;20273;-74
2022/02/22 00:40:01;;;;;;;9.37;8.00;;;5.40;99.90;;;;;;4974220;28;20229;-74
2022/02/22 00:42:28;;;;;;;8.53;7.47;;;5.40;99.90;;;;;;4988426;28;20214;-75
2022/02/22 00:44:55;;;;;;;9.37;8.27;;;5.40;99.90;;;;;;4991006;28;20201;-75
2022/02/22 00:47:22;;;;;;;8.33;7.23;;;5.40;99.90;;;;;;4970752;28;20553;-75
2022/02/22 00:49:50;;;;;;;8.30;7.50;;;5.40;99.90;;;;;;4988625;28;20201;-74
2022/02/22 00:52:17;;;;;;;8.30;7.70;;;5.40;99.90;;;;;;4989742;28;20244;-74
2022/02/22 00:54:43;;;;;;;8.47;7.63;;;5.40;99.90;;;;;;4986475;28;20201;-74
2022/02/22 00:57:10;;;;;;;7.97;7.33;;;5.40;99.90;;;;;;4973452;28;20213;-75
2022/02/22 00:59:37;;;;;;;9.03;7.97;;;5.40;99.90;;;;;;5002520;28;20217;-74
2022/02/22 01:02:04;;;;;;;8.10;7.30;;;5.40;99.90;;;;;;4973376;28;20202;-75
2022/02/22 01:04:31;;;;;;;7.80;7.20;;;5.40;99.90;;;;;;5004155;28;20205;-74
2022/02/22 01:06:59;;;;;;;7.80;7.20;;;5.40;99.90;;;;;;4982580;28;20229;-74
2022/02/22 01:09:26;;;;;;;7.80;7.13;;;5.30;99.90;;;;;;4973636;28;20202;-74
2022/02/22 01:11:53;;;;;;;8.17;7.47;;;5.30;99.90;;;;;;4973450;28;20233;-74
2022/02/22 01:14:20;;;;;;;7.77;7.10;;;5.30;99.90;;;;;;4995131;28;20201;-74
2022/02/22 01:16:47;;;;;;;8.20;7.50;;;5.30;99.90;;;;;;4990815;28;20635;-74
2022/02/22 01:19:14;;;;;;;8.40;7.80;;;5.30;99.90;;;;;;4993704;28;20200;-74
2022/02/22 01:21:41;;;;;;;9.30;7.70;;;5.30;99.90;;;;;;5006376;28;20608;-74
2022/02/22 01:24:10;;;;;;;9.13;7.80;;;5.30;99.90;;;;;;4993023;28;20348;-74
2022/02/22 01:26:37;;;;;;;7.70;7.10;;;5.30;99.90;;;;;;4989378;28;20226;-75
2022/02/22 01:29:05;;;;;;;8.20;7.50;;;5.20;99.90;;;;;;4992347;28;20206;-74
2022/02/22 01:31:31;;;;;;;8.63;7.43;;;5.30;99.90;;;;;;4994422;28;20217;-74
2022/02/22 01:33:58;;;;;;;7.90;7.33;;;5.20;99.90;;;;;;4991066;28;20197;-75
2022/02/22 01:36:27;;;;;;;10.13;7.27;;;5.30;99.90;;;;;;4988857;28;20201;-75
2022/02/22 01:38:54;;;;;;;8.63;7.50;;;5.30;99.90;;;;;;4992200;28;20674;-74
2022/02/22 01:41:25;;;;;;;7.87;7.13;;;5.30;99.90;;;;;;5001820;28;20272;-74
2022/02/22 01:43:52;;;;;;;8.10;7.40;;;5.20;99.90;;;;;;4973827;28;20214;-74
2022/02/22 01:46:19;;;;;;;7.70;7.20;;;5.20;99.90;;;;;;4993117;28;20201;-75
2022/02/22 01:48:46;;;;;;;8.13;7.40;;;5.20;99.90;;;;;;5001098;28;20249;-74
2022/02/22 01:51:12;;;;;;;8.13;7.27;;;5.30;99.90;;;;;;4992557;28;20217;-74
2022/02/22 01:53:39;;;;;;;8.87;7.37;;;5.30;99.90;;;;;;5001424;28;20194;-74
2022/02/22 01:56:08;;;;;;;7.97;7.27;;;5.30;99.90;;;;;;4991682;28;20666;-75
2022/02/22 01:58:36;;;;;;;7.63;7.03;;;5.20;99.90;;;;;;4993250;28;20545;-74
2022/02/22 02:01:04;;;;;;;7.67;6.90;;;5.20;99.90;;;;;;4990772;28;20372;-74
2022/02/22 02:03:31;;;;;;;7.77;7.07;;;5.20;99.90;;;;;;4970777;28;20714;-74
2022/02/22 02:05:58;;;;;;;8.07;7.27;;;5.20;99.90;;;;;;4972593;28;20209;-74
2022/02/22 02:08:24;;;;;;;8.87;7.40;;;5.10;99.90;;;;;;4984959;28;20193;-74
2022/02/22 02:10:51;;;;;;;8.10;7.30;;;5.10;99.90;;;;;;4985775;28;20717;-74
2022/02/22 02:13:21;;;;;;;7.80;7.10;;;5.10;99.90;;;;;;4985796;28;20194;-74
2022/02/22 02:15:49;;;;;;;9.47;7.70;;;5.10;99.90;;;;;;4971971;28;20564;-74
2022/02/22 02:18:16;;;;;;;8.13;7.30;;;5.10;99.90;;;;;;4984811;28;20206;-74
2022/02/22 02:20:43;;;;;;;10.53;7.40;;;5.20;99.90;;;;;;4993686;28;20583;-74
2022/02/22 02:23:11;;;;;;;8.23;7.53;;;5.20;99.90;;;;;;4971862;28;20221;-75
2022/02/22 02:25:38;;;;;;;8.70;7.53;;;5.20;99.90;;;;;;4986551;28;20240;-74
2022/02/22 02:28:06;;;;;;;8.67;7.97;;;5.20;99.90;;;;;;4995769;28;20268;-74
2022/02/22 02:30:33;;;;;;;8.93;8.13;;;5.10;99.90;;;;;;4985450;28;20232;-74
2022/02/22 02:33:00;;;;;;;8.47;7.77;;;5.00;99.90;;;;;;4988425;28;20197;-75
2022/02/22 02:35:28;;;;;;;9.00;8.17;;;4.90;99.90;;;;;;4985531;28;20535;-74
2022/02/22 02:37:54;;;;;;;8.37;7.67;;;4.80;99.90;;;;;;4999885;28;20209;-74
2022/02/22 02:40:23;;;;;;;8.77;7.97;;;4.70;99.90;;;;;;4976473;28;20316;-74
2022/02/22 02:42:49;;;;;;;8.30;7.67;;;4.60;99.90;;;;;;4990439;28;20676;-74
2022/02/22 02:45:16;;;;;;;8.20;7.60;;;4.60;99.90;;;;;;4984936;28;20260;-74
2022/02/22 02:47:44;;;;;;;8.00;7.30;;;4.50;99.90;;;;;;4984493;28;20663;-74
2022/02/22 02:50:12;;;;;;;8.77;7.93;;;4.50;99.90;;;;;;4984957;28;20213;-74
2022/02/22 02:52:38;;;;;;;5.80;5.23;;;4.40;99.90;;;;;;4987940;28;20705;-74
2022/02/22 02:55:06;;;;;;;7.23;3.57;;;4.40;99.90;;;;;;4994546;28;20223;-74
2022/02/22 02:57:36;;;;;;;8.63;7.93;;;4.40;99.90;;;;;;4989272;28;20205;-74
2022/02/22 03:00:03;;;;;;;5.60;4.63;;;4.30;99.90;;;;;;4992346;28;20221;-74
2022/02/22 03:02:30;;;;;;;8.43;3.13;;;4.30;99.90;;;;;;4989265;28;20249;-74
2022/02/22 03:04:59;;;;;;;7.53;6.87;;;4.30;99.90;;;;;;4992361;28;20284;-74
2022/02/22 03:07:26;;;;;;;7.83;7.07;;;4.20;99.90;;;;;;4984016;28;20216;-75
2022/02/22 03:09:53;;;;;;;9.80;9.10;;;4.20;99.90;;;;;;4968465;28;20664;-74
2022/02/22 03:12:20;;;;;;;9.53;8.93;;;4.10;99.90;;;;;;4989380;28;20197;-74
2022/02/22 03:14:49;;;;;;;10.43;9.47;;;4.10;99.90;;;;;;4987039;28;20193;-74
2022/02/22 03:17:16;;;;;;;9.30;8.50;;;4.00;99.90;;;;;;4984010;28;20225;-74
2022/02/22 03:19:43;;;;;;;9.63;8.83;;;4.00;99.90;;;;;;4985695;28;20618;-74
2022/02/22 03:22:09;;;;;;;10.00;9.20;;;3.90;99.90;;;;;;4984525;28;20199;-74
2022/02/22 03:24:36;;;;;;;9.23;8.63;;;3.90;99.90;;;;;;4984351;28;20213;-75
2022/02/22 03:27:03;;;;;;;10.23;9.20;;;3.90;99.90;;;;;;4983851;28;20221;-74
2022/02/22 03:29:30;;;;;;;9.83;8.90;;;3.80;99.90;;;;;;4988831;28;20675;-74
2022/02/22 03:31:58;;;;;;;9.80;8.80;;;3.80;99.90;;;;;;4987889;28;20465;-74
2022/02/22 03:34:25;;;;;;;9.83;8.93;;;3.80;99.90;;;;;;4984069;28;20193;-74
2022/02/22 03:36:52;;;;;;;9.93;9.30;;;3.80;99.90;;;;;;4996011;28;20587;-74
2022/02/22 03:39:19;;;;;;;10.40;9.37;;;3.70;99.90;;;;;;4987771;28;20259;-74
2022/02/22 03:41:45;;;;;;;10.20;9.20;;;3.80;99.90;;;;;;4985100;28;20221;-75
2022/02/22 03:44:12;;;;;;;9.33;8.63;;;3.70;99.90;;;;;;5001766;28;20220;-75
2022/02/22 03:46:39;;;;;;;9.57;8.77;;;3.70;99.90;;;;;;5001126;28;20948;-75
2022/02/22 03:49:08;;;;;;;10.07;9.23;;;3.70;99.90;;;;;;4995246;28;20445;-74
2022/02/22 03:51:37;;;;;;;10.20;9.47;;;3.70;99.90;;;;;;4992168;28;20763;-75
2022/02/22 03:54:04;;;;;;;9.30;8.60;;;3.70;99.90;;;;;;4983896;28;20202;-74
2022/02/22 03:56:30;;;;;;;10.03;9.23;;;3.70;99.90;;;;;;4987779;28;21157;-74
2022/02/22 03:58:57;;;;;;;9.90;9.20;;;3.70;99.90;;;;;;4988002;28;20447;-75
2022/02/22 04:01:24;;;;;;;10.33;9.43;;;3.70;99.90;;;;;;4990903;28;20515;-75
2022/02/22 04:03:51;;;;;;;9.50;8.80;;;3.70;99.90;;;;;;4985447;28;20228;-74
2022/02/22 04:06:19;;;;;;;9.50;8.60;;;3.70;99.90;;;;;;4974494;28;20449;-76
2022/02/22 04:08:46;;;;;;;9.63;8.90;;;3.70;99.90;;;;;;4988077;28;20679;-75
2022/02/22 04:11:13;;;;;;;9.93;9.00;;;3.70;99.90;;;;;;4987144;28;20267;-73
2022/02/22 04:13:40;;;;;;;10.00;8.97;;;3.70;99.90;;;;;;4996943;28;20251;-75
2022/02/22 04:16:07;;;;;;;9.90;9.00;;;3.60;99.90;;;;;;4994458;28;20491;-74
2022/02/22 04:18:34;;;;;;;9.77;8.90;;;3.60;99.90;;;;;;4983622;28;20466;-75
2022/02/22 04:21:01;;;;;;;9.77;8.80;;;3.60;99.90;;;;;;4986131;28;20476;-74
2022/02/22 04:23:29;;;;;;;10.10;9.30;;;3.70;99.90;;;;;;4998176;28;20652;-74
2022/02/22 04:25:55;;;;;;;10.20;9.40;;;3.70;99.90;;;;;;4988426;28;20205;-74
2022/02/22 04:28:22;;;;;;;10.20;9.30;;;3.80;99.90;;;;;;4989183;28;20532;-74
2022/02/22 04:30:49;;;;;;;9.77;8.90;;;3.80;99.90;;;;;;4991300;28;20717;-75
2022/02/22 04:33:16;;;;;;;9.30;8.63;;;3.90;99.90;;;;;;4987071;28;20441;-74
2022/02/22 04:35:43;;;;;;;10.90;9.80;;;3.90;99.90;;;;;;4992959;28;20202;-76
2022/02/22 04:38:10;;;;;;;10.80;10.00;;;3.90;99.90;;;;;;4982062;28;20464;-74
2022/02/22 04:40:38;;;;;;;10.03;9.40;;;3.90;99.90;;;;;;4972580;28;20228;-74
2022/02/22 04:43:05;;;;;;;10.57;9.67;;;3.90;99.90;;;;;;4981096;28;20193;-73
2022/02/22 04:45:32;;;;;;;9.70;8.87;;;3.90;99.90;;;;;;4974758;28;20288;-75
2022/02/22 04:47:58;;;;;;;9.73;8.83;;;3.80;99.90;;;;;;4995382;28;20654;-73
2022/02/22 04:50:26;;;;;;;9.50;8.90;;;3.80;99.90;;;;;;4991822;28;20516;-74
2022/02/22 04:52:52;;;;;;;9.60;8.90;;;3.70;99.90;;;;;;4990856;28;20277;-74
2022/02/22 04:55:20;;;;;;;9.63;8.90;;;3.70;99.90;;;;;;4971158;28;20669;-77
2022/02/22 04:57:48;;;;;;;10.30;9.50;;;3.70;99.90;;;;;;4999050;28;20738;-74
2022/02/22 05:00:16;;;;;;;10.23;9.30;;;3.70;99.90;;;;;;5002724;28;20502;-77
2022/02/22 05:02:43;;;;;;;9.93;9.13;;;3.70;99.90;;;;;;4989453;28;20735;-77
2022/02/22 05:05:10;;;;;;;9.73;9.07;;;3.60;99.90;;;;;;4991185;28;20239;-76
2022/02/22 05:07:37;;;;;;;10.00;9.03;;;3.60;99.90;;;;;;4990210;28;20488;-76
2022/02/22 05:12:41;;;;;;;9.77;9.10;;;3.60;99.90;;;;;;5004029;28;20455;-78
2022/02/22 05:15:11;;;;;;;10.23;9.40;;;3.60;99.90;;;;;;5028614;28;20195;-78
2022/02/22 05:17:38;;;;;;;10.30;9.50;;;3.60;99.90;;;;;;4997818;28;20456;-78
2022/02/22 05:20:07;;;;;;;10.53;9.67;;;3.60;99.90;;;;;;4996184;28;20546;-78
2022/02/22 05:22:39;;;;;;;10.70;9.80;;;3.60;99.90;;;;;;4994584;28;20516;-78
2022/02/22 05:25:07;;;;;;;10.93;10.13;;;3.60;99.90;;;;;;4976721;28;20306;-77
2022/02/22 05:27:33;;;;;;;10.87;9.97;;;3.50;99.90;;;;;;4978178;28;20452;-76
2022/02/22 05:30:00;;;;;;;9.93;9.30;;;3.50;99.90;;;;;;4980066;28;20970;-76
2022/02/22 05:32:29;;;;;;;10.33;9.43;;;3.40;99.90;;;;;;4975349;28;20229;-76
2022/02/22 05:34:56;;;;;;;9.87;9.20;;;3.40;99.90;;;;;;4994161;28;20441;-77
2022/02/22 05:37:23;;;;;;;10.47;9.77;;;3.40;99.90;;;;;;4982594;28;20445;-79
2022/02/22 05:39:50;;;;;;;10.23;9.40;;;3.40;99.90;;;;;;5001637;28;20452;-78
2022/02/22 05:42:17;;;;;;;11.10;9.80;;;3.30;99.90;;;;;;4985883;28;20543;-78
2022/02/22 05:44:43;;;;;;;10.27;9.57;;;3.30;99.90;;;;;;4998910;28;20525;-77
2022/02/22 05:47:10;;;;;;;10.73;9.93;;;3.30;99.90;;;;;;4997459;28;20448;-76
2022/02/22 05:49:38;;;;;;;11.67;10.67;;;3.20;99.90;;;;;;4986371;28;20444;-77
2022/02/22 05:52:06;;;;;;;11.57;10.67;;;3.20;99.90;;;;;;4985132;28;20980;-77
2022/02/22 05:54:32;;;;;;;11.00;10.27;;;3.20;99.90;;;;;;4968242;28;20961;-77
2022/02/22 05:56:59;;;;;;;10.87;10.17;;;3.20;99.90;;;;;;4976103;28;20451;-76
2022/02/22 05:59:26;;;;;;;11.43;10.53;;;3.20;99.90;;;;;;4968882;28;20444;-77
2022/02/22 06:01:53;;;;;;;12.57;10.40;;;3.20;99.90;;;;;;4976712;28;20473;-77
2022/02/22 06:04:20;;;;;;;10.57;9.80;;;3.20;99.90;;;;;;4985999;28;20483;-77
2022/02/22 06:06:48;;;;;;;10.17;9.23;;;3.10;99.90;;;;;;4985067;28;20447;-77
2022/02/22 06:09:15;;;;;;;10.23;9.40;;;3.10;99.90;;;;;;4972480;28;20205;-77
2022/02/22 06:11:42;;;;;;;10.43;9.77;;;3.10;99.90;;;;;;4985569;28;20464;-77
2022/02/22 06:14:09;;;;;;;11.20;10.27;;;3.10;99.90;;;;;;4968174;28;20456;-76
2022/02/22 06:16:36;;;;;;;10.37;9.60;;;3.00;99.90;;;;;;4971523;28;20584;-77
2022/02/22 06:19:03;;;;;;;10.93;9.93;;;3.00;99.90;;;;;;4972989;28;20480;-76
2022/02/22 06:21:30;;;;;;;11.13;10.13;;;2.90;99.90;;;;;;4985469;28;20521;-77
2022/02/22 06:23:58;;;;;;;10.63;9.93;;;2.90;99.90;;;;;;4985554;28;20478;-78
2022/02/22 06:26:25;;;;;;;10.27;9.43;;;2.90;99.90;;;;;;4984896;28;20440;-78
2022/02/22 06:28:52;;;;;;;10.97;10.17;;;2.90;99.90;;;;;;4971798;28;20461;-77
2022/02/22 06:31:18;;;;;;;11.00;10.10;;;3.00;99.90;;;;;;4968218;28;20543;-77
2022/02/22 06:33:45;;;;;;;10.70;9.90;;;3.00;99.90;;;;;;4970156;28;20475;-79
2022/02/22 06:36:12;;;;;;;10.93;10.10;;;3.00;99.90;;;;;;4972524;28;20971;-77
2022/02/22 06:38:39;;;;;;;11.03;10.23;;;3.00;99.90;;;;;;4968990;28;20252;-75
2022/02/22 06:41:07;;;;;;;11.90;10.80;;;3.00;99.90;;;;;;4967465;28;20484;-77
2022/02/22 06:43:34;;;;;;;11.90;10.90;;;3.00;99.90;;;;;;4967826;28;20459;-77
2022/02/22 06:46:03;;;;;;;11.73;10.57;;;3.00;99.90;;;;;;4988308;28;20483;-77
2022/02/22 06:48:30;;;;;;;12.90;11.00;;;3.00;99.90;;;;;;4981071;28;20437;-77
2022/02/22 06:50:56;;;;;;;11.47;10.60;;;3.10;99.90;;;;;;4985549;28;20501;-77
2022/02/22 06:53:23;;;;;;;12.73;11.40;;;3.10;99.90;;;;;;4972440;28;20460;-77
2022/02/22 06:55:50;;;;;;;11.60;10.67;;;3.10;99.90;;;;;;4974342;28;20505;-76
2022/02/22 06:58:18;;;;;;;12.23;11.03;;;3.10;99.90;;;;;;4984313;28;20499;-76
2022/02/22 07:00:48;;;;;;;12.13;10.90;;;3.10;99.90;;;;;;4988496;28;20591;-77
2022/02/22 07:03:15;;;;;;;11.87;10.83;;;3.20;99.90;;;;;;4974378;28;20449;-77
2022/02/22 07:05:42;;;;;;;12.20;11.20;;;3.10;99.90;;;;;;4972385;28;20528;-77
2022/02/22 07:08:09;;;;;;;12.40;11.40;;;3.20;99.90;;;;;;4966935;28;20456;-77
2022/02/22 07:10:36;;;;;;;11.93;10.97;;;3.20;99.90;;;;;;4973837;28;20577;-77
2022/02/22 07:13:03;;;;;;;12.67;10.90;;;3.20;99.90;;;;;;4984848;28;20444;-77
2022/02/22 07:15:31;;;;;;;11.30;10.40;;;3.30;99.90;;;;;;4967261;28;20451;-78
2022/02/22 07:17:59;;;;;;;11.47;10.67;;;3.30;99.90;;;;;;4968845;28;20508;-76
2022/02/22 07:20:28;;;;;;;11.50;10.60;;;3.40;99.90;;;;;;4967072;28;20820;-80
2022/02/22 07:22:56;;;;;;;13.33;11.00;;;3.60;99.90;;;;;;4974647;28;20201;-80
2022/02/22 07:25:24;;;;;;;11.40;10.50;;;3.70;99.90;;;;;;5005352;28;20501;-78
2022/02/22 07:27:51;;;;;;;11.70;10.70;;;3.90;99.90;;;;;;4985004;28;20259;-79
2022/02/22 07:30:20;;;;;;;11.10;10.10;;;4.10;99.90;;;;;;4991399;28;20235;-78
2022/02/22 07:32:50;;;;;;;10.40;9.50;;;4.20;99.90;;;;;;4970884;28;20209;-79
2022/02/22 07:35:17;;;;;;;11.50;10.60;;;4.40;99.90;;;;;;4987623;28;20207;-78
2022/02/22 07:37:45;;;;;;;11.30;10.40;;;4.50;99.90;;;;;;4991502;28;20193;-78
2022/02/22 07:40:14;;;;;;;10.87;10.17;;;4.60;99.90;;;;;;4982757;28;20259;-78
2022/02/22 07:42:41;;;;;;;10.80;10.00;;;4.80;99.90;;;;;;4964932;28;20308;-78
2022/02/22 07:45:10;;;;;;;10.13;9.17;;;5.00;99.90;;;;;;4974227;28;20225;-79
2022/02/22 07:47:36;;;;;;;10.57;9.57;;;5.30;99.90;;;;;;5003166;28;20200;-78
2022/02/22 07:50:06;;;;;;;9.70;8.80;;;5.60;99.90;;;;;;4983282;28;20211;-78
2022/02/22 07:52:33;;;;;;;10.00;9.17;;;5.60;99.90;;;;;;5006273;28;20674;-78
2022/02/22 07:55:00;;;;;;;11.93;9.67;;;5.60;99.90;;;;;;4982161;28;20568;-78
2022/02/22 07:57:28;;;;;;;9.90;7.03;;;5.60;99.90;;;;;;4969089;28;20655;-78
2022/02/22 07:59:55;;;;;;;8.57;6.43;;;5.50;99.90;;;;;;4987881;28;20249;-78
2022/02/22 08:02:22;;;;;;;10.33;9.13;;;5.60;99.90;;;;;;4967257;28;20646;-78
2022/02/22 08:04:49;;;;;;;6.80;4.50;;;5.70;99.90;;;;;;4968912;28;20221;-78
2022/02/22 08:07:20;;;;;;;9.10;8.40;;;6.10;99.90;;;;;;4991874;28;20536;-79
2022/02/22 08:09:47;;;;;;;8.47;6.70;;;6.70;99.90;;;;;;4988002;28;20302;-78
2022/02/22 08:12:14;;;;;;;8.57;7.77;;;7.30;99.90;;;;;;4966753;28;20302;-78
2022/02/22 08:14:41;;;;;;;7.37;3.33;;;7.90;99.90;;;;;;4986364;28;20737;-78
2022/02/22 08:17:08;;;;;;;8.53;3.77;;;8.30;99.90;;;;;;4971531;28;20699;-79
2022/02/22 08:19:35;;;;;;;10.07;9.10;;;8.70;99.90;;;;;;4971560;28;20271;-78
2022/02/22 08:22:02;;;;;;;3.67;2.90;;;9.20;99.90;;;;;;4987651;28;20275;-79
2022/02/22 08:24:30;;;;;;;10.03;9.13;;;9.60;99.90;;;;;;4985820;28;20255;-78
2022/02/22 08:26:59;;;;;;;4.47;2.97;;;9.60;99.90;;;;;;4973418;28;20619;-79
2022/02/22 08:29:27;;;;;;;10.50;8.03;;;9.60;99.90;;;;;;4987642;28;20228;-78
2022/02/22 08:31:54;;;;;;;11.53;9.23;;;9.70;99.90;;;;;;4995720;28;20213;-79
2022/02/22 08:34:21;;;;;;;8.67;7.80;;;9.70;99.90;;;;;;4987681;28;20564;-78
2022/02/22 08:36:48;;;;;;;10.90;9.30;;;9.50;99.90;;;;;;4994179;28;20248;-79
2022/02/22 08:39:15;;;;;;;7.50;6.77;;;9.20;99.90;;;;;;4985059;28;20202;-81
2022/02/22 08:41:43;;;;;;;5.97;4.70;;;9.50;99.90;;;;;;4999040;28;20220;-78
2022/02/22 08:44:10;;;;;;;7.33;6.13;;;9.80;99.90;;;;;;5005725;28;20201;-77
2022/02/22 08:46:38;;;;;;;7.00;5.70;;;9.80;99.90;;;;;;4988139;28;20316;-78
2022/02/22 08:49:05;;;;;;;8.37;5.97;;;9.80;99.90;;;;;;5004413;28;20615;-76
2022/02/22 08:51:31;;;;;;;6.87;6.27;;;9.60;99.90;;;;;;4986199;28;20217;-77
2022/02/22 08:53:58;;;;;;;7.57;6.87;;;9.20;99.90;;;;;;5004884;28;20201;-77
2022/02/22 08:56:25;;;;;;;7.90;7.10;;;9.10;99.90;;;;;;4994673;28;20197;-77
2022/02/22 08:58:54;;;;;;;8.67;7.87;;;9.00;99.90;;;;;;4988630;28;20311;-76
2022/02/22 09:01:20;;;;;;;8.70;7.90;;;8.80;99.90;;;;;;4995573;28;20228;-76
2022/02/22 09:03:47;;;;;;;7.63;6.23;;;8.60;99.90;;;;;;5002070;28;20691;-78
2022/02/22 09:06:14;;;;;;;3.60;3.30;;;8.40;99.90;;;;;;4978841;28;20280;-77
2022/02/22 09:08:41;;;;;;;6.10;4.70;;;8.30;99.90;;;;;;4987423;28;20281;-77
2022/02/22 09:11:08;;;;;;;8.40;4.00;;;8.20;99.90;;;;;;4974341;28;20225;-77
2022/02/22 09:13:35;;;;;;;7.03;3.90;;;8.10;99.90;;;;;;4987134;28;20246;-77
2022/02/22 09:16:03;;;;;;;7.53;4.67;;;8.00;99.90;;;;;;4980442;28;20659;-77
2022/02/22 09:18:30;;;;;;;6.10;4.40;;;7.90;99.90;;;;;;4993028;28;20669;-77
2022/02/22 09:20:57;;;;;;;7.80;4.13;;;7.90;99.90;;;;;;4994463;28;20233;-78
2022/02/22 09:23:23;;;;;;;5.87;4.40;;;7.90;99.90;;;;;;4976590;28;20201;-76
2022/02/22 09:25:50;;;;;;;8.33;6.57;;;7.80;99.90;;;;;;4975976;28;20228;-77
2022/02/22 09:28:17;;;;;;;9.23;6.87;;;7.80;99.90;;;;;;4981272;28;20596;-78
2022/02/22 09:30:44;;;;;;;9.07;6.93;;;7.80;99.90;;;;;;5001572;28;20213;-77
2022/02/22 09:33:12;;;;;;;8.63;7.70;;;7.80;99.90;;;;;;4998285;28;20250;-76
2022/02/22 09:35:39;;;;;;;9.27;8.47;;;7.90;99.90;;;;;;4998035;28;20685;-77
2022/02/22 09:38:06;;;;;;;7.73;7.03;;;7.90;99.90;;;;;;4997984;28;20208;-77
2022/02/22 09:40:33;;;;;;;8.47;5.83;;;7.90;99.90;;;;;;4983340;28;20228;-76
2022/02/22 09:43:01;;;;;;;8.33;6.30;;;8.00;99.90;;;;;;4994277;28;20205;-77
2022/02/22 09:45:28;;;;;;;6.50;5.90;;;8.20;99.90;;;;;;4989610;28;20275;-77
2022/02/22 09:47:58;;;;;;;9.03;8.23;;;8.30;99.90;;;;;;4984654;28;20259;-78
2022/02/22 09:50:26;;;;;;;8.77;7.97;;;8.40;99.90;;;;;;4975623;28;20221;-76
2022/02/22 09:52:53;;;;;;;10.10;9.10;;;8.60;99.90;;;;;;4979953;28;20212;-77
2022/02/22 09:55:20;;;;;;;8.47;7.70;;;8.70;99.90;;;;;;4996057;28;20205;-77
2022/02/22 09:57:47;;;;;;;10.07;7.53;;;8.70;99.90;;;;;;4993386;28;20587;-78
2022/02/22 10:00:20;;;;;;;8.73;7.10;;;8.70;99.90;;;;;;4993479;28;20201;-77
2022/02/22 10:02:47;;;;;;;9.57;7.00;;;8.70;99.90;;;;;;4994507;28;20206;-78
2022/02/22 10:05:16;;;;;;;7.60;6.90;;;8.70;99.90;;;;;;4976170;28;20217;-77
2022/02/22 10:07:54;;;;;;;8.77;6.80;;;8.80;99.90;;;;;;4989370;28;20663;-77
2022/02/22 10:10:31;;;;;;;9.00;6.60;;;8.90;99.90;;;;;;4974661;28;20633;-78
2022/02/22 10:12:58;;;;;;;7.67;6.90;;;8.90;99.90;;;;;;4991330;28;20610;-79
2022/02/22 10:15:25;;;;;;;11.20;7.30;;;8.90;99.90;;;;;;4976640;28;20235;-77
2022/02/22 10:17:52;;;;;;;9.37;7.00;;;9.00;99.90;;;;;;5002630;28;20225;-79
2022/02/22 10:20:20;;;;;;;6.67;6.23;;;9.10;99.90;;;;;;4976847;28;20288;-77
2022/02/22 10:22:50;;;;;;;7.70;7.00;;;9.40;99.90;;;;;;4987497;28;20694;-77
2022/02/22 10:25:18;;;;;;;6.97;6.37;;;9.60;99.90;;;;;;4988685;28;20186;-77
2022/02/22 10:27:48;;;;;;;6.17;4.53;;;9.90;99.90;;;;;;4987197;28;20199;-77
2022/02/22 10:30:26;;;;;;;5.97;4.93;;;10.20;99.90;;;;;;4972006;28;20341;-79
2022/02/22 10:32:53;;;;;;;7.60;4.97;;;10.40;99.90;;;;;;4989780;28;20209;-77
2022/02/22 10:35:30;;;;;;;6.97;2.73;;;10.40;99.90;;;;;;4992453;28;20193;-77
2022/02/22 10:37:59;;;;;;;6.80;2.93;;;10.40;99.90;;;;;;4990514;28;20205;-77
2022/02/22 10:40:28;;;;;;;8.07;3.33;;;10.40;99.90;;;;;;5001269;28;20224;-76
2022/02/22 10:42:55;;;;;;;5.70;4.90;;;10.50;99.90;;;;;;4995732;28;20209;-76
2022/02/22 10:45:24;;;;;;;4.87;4.43;;;10.60;99.90;;;;;;5003777;28;20281;-77
2022/02/22 10:47:55;;;;;;;8.20;4.63;;;10.60;99.90;;;;;;4975728;28;20210;-76
2022/02/22 10:50:28;;;;;;;6.10;4.60;;;10.50;99.90;;;;;;4975490;28;20299;-77
2022/02/22 10:52:56;;;;;;;6.37;4.33;;;10.50;99.90;;;;;;4975342;28;20211;-77
2022/02/22 10:55:25;;;;;;;10.23;4.27;;;10.50;99.90;;;;;;4977564;28;20238;-75
2022/02/22 10:57:53;;;;;;;5.57;4.40;;;10.50;99.90;;;;;;4986393;28;20201;-76
2022/02/22 11:00:20;;;;;;;7.60;4.47;;;10.60;99.90;;;;;;4971285;28;20201;-77
2022/02/22 11:02:47;;;;;;;9.00;4.10;;;10.60;99.90;;;;;;4975379;28;20306;-77
2022/02/22 11:05:14;;;;;;;5.17;4.20;;;10.60;99.90;;;;;;4969221;28;20205;-76
2022/02/22 11:07:42;;;;;;;6.63;4.57;;;10.50;99.90;;;;;;4989909;28;20235;-77
2022/02/22 11:10:11;;;;;;;7.77;4.67;;;10.40;99.90;;;;;;4978219;28;20194;-76
2022/02/22 11:12:53;;;;;;;5.20;4.10;;;10.40;99.90;;;;;;4996320;28;20216;-77
2022/02/22 11:15:33;;;;;;;5.17;3.93;;;10.40;99.90;;;;;;4987332;28;20196;-77
2022/02/22 11:18:06;;;;;;;5.17;3.90;;;10.40;99.90;;;;;;4990064;28;20198;-76
2022/02/22 11:20:35;;;;;;;7.83;4.27;;;10.50;99.90;;;;;;4986815;28;20297;-76
2022/02/22 11:23:05;;;;;;;8.57;5.10;;;10.50;99.90;;;;;;4989194;28;20289;-77
2022/02/22 11:25:34;;;;;;;6.50;4.47;;;10.40;99.90;;;;;;4984826;28;20218;-77
2022/02/22 11:28:05;;;;;;;6.10;2.90;;;10.20;99.90;;;;;;4988728;28;20202;-77
2022/02/22 11:30:35;;;;;;;5.20;4.47;;;9.90;99.90;;;;;;4982551;28;20642;-77
2022/02/22 11:33:06;;;;;;;5.30;4.90;;;9.80;99.90;;;;;;4996064;28;20197;-77
2022/02/22 11:35:45;;;;;;;7.33;6.80;;;9.70;99.90;;;;;;4973805;28;20201;-77
2022/02/22 11:38:13;;;;;;;7.63;7.03;;;9.70;99.90;;;;;;4992130;28;20200;-78
2022/02/22 11:40:41;;;;;;;6.73;6.13;;;9.70;99.90;;;;;;4992017;28;20223;-78
2022/02/22 11:43:12;;;;;;;5.80;5.20;;;9.90;99.90;;;;;;4990165;28;20202;-78
2022/02/22 11:45:40;;;;;;;6.30;5.80;;;9.90;99.90;;;;;;4974414;28;20201;-79
2022/02/22 11:48:19;;;;;;;7.93;7.23;;;9.80;99.90;;;;;;4989531;28;20202;-78
2022/02/22 11:50:47;;;;;;;5.03;4.63;;;9.70;99.90;;;;;;4966124;28;20268;-78
2022/02/22 11:53:19;;;;;;;9.20;8.40;;;9.60;99.90;;;;;;4989907;28;20656;-78
2022/02/22 11:55:49;;;;;;;8.43;7.50;;;9.50;99.90;;;;;;4989693;28;20204;-78
2022/02/22 11:58:22;;;;;;;8.50;7.80;;;9.60;99.90;;;;;;4973654;28;20203;-78
2022/02/22 12:00:50;;;;;;;8.60;7.80;;;9.60;99.90;;;;;;4991079;28;20217;-78
2022/02/22 12:03:21;;;;;;;8.70;7.90;;;9.80;99.90;;;;;;4985926;28;20212;-78
2022/02/22 12:05:53;;;;;;;7.17;5.57;;;9.90;99.90;;;;;;4974167;28;20209;-77
2022/02/22 12:08:21;;;;;;;8.43;5.33;;;10.10;99.90;;;;;;4990242;28;20579;-79
2022/02/22 12:10:52;;;;;;;6.27;4.20;;;10.20;99.90;;;;;;4967573;28;20316;-78
2022/02/22 12:13:22;;;;;;;6.70;4.20;;;10.20;99.90;;;;;;4972950;28;20583;-78
2022/02/22 12:15:49;;;;;;;6.33;4.03;;;10.40;99.90;;;;;;4992646;28;20204;-78
2022/02/22 12:18:20;;;;;;;10.03;5.00;;;10.50;99.90;;;;;;4989907;28;20217;-78
2022/02/22 12:20:49;;;;;;;7.87;3.63;;;10.60;99.90;;;;;;4986755;28;20747;-78
2022/02/22 12:23:18;;;;;;;9.07;4.20;;;10.60;99.90;;;;;;5001293;28;20226;-79
2022/02/22 12:25:45;;;;;;;8.73;5.70;;;10.70;99.90;;;;;;5005520;28;20687;-79
2022/02/22 12:28:12;;;;;;;8.53;6.13;;;10.70;99.90;;;;;;4984527;28;20206;-78
2022/02/22 12:30:41;;;;;;;7.43;5.50;;;10.80;99.90;;;;;;4992679;28;20219;-79
2022/02/22 12:33:09;;;;;;;7.23;5.87;;;10.80;99.90;;;;;;4998797;28;20206;-80
2022/02/22 12:35:38;;;;;;;9.50;6.83;;;10.80;99.90;;;;;;4990997;28;20210;-78
2022/02/22 12:38:13;;;;;;;8.03;7.30;;;10.70;99.90;;;;;;4972304;28;20216;-78
2022/02/22 12:40:40;;;;;;;9.73;8.00;;;10.70;99.90;;;;;;4974434;28;20218;-79
2022/02/22 12:43:08;;;;;;;9.83;7.67;;;10.70;99.90;;;;;;4991473;28;20207;-79
2022/02/22 12:45:36;;;;;;;7.70;7.10;;;10.70;99.90;;;;;;4986756;28;20552;-79
2022/02/22 12:48:07;;;;;;;9.33;7.73;;;10.70;99.90;;;;;;4972135;28;20229;-78
2022/02/22 12:50:34;;;;;;;8.40;7.60;;;10.80;99.90;;;;;;4985511;28;20215;-80
2022/02/22 12:53:01;;;;;;;8.27;7.57;;;10.90;99.90;;;;;;4973020;28;20200;-79
2022/02/22 12:55:28;;;;;;;7.37;6.67;;;10.90;99.90;;;;;;4992218;28;20893;-78